Aeroporto :
LOGIN :

Iscrizione | Disclaimer

   EN    FR    IT 

 










Sommario :    VFR   VFR Marginale   IFR   IFR Intensivo   IFR Molto Intensivo
Visibilità : 
Base nubi : 
>= 8 km
>= 3000ft
5 / 8 km
1000 / 3000 ft
1500m / 5 km
500 / 1000 ft
800 / 1500m
200 / 500 ft
< 800m
< 200 ft
Simboli :   Temporali  Nebbia  Neve Forte  Precipitazioni Forti  Vento > 20 kt
SIGMETs :   Varie  Temporali  Ghiacco  Turbolenza  Onda orograficha  Ceneri Vulcaniche






- Altitudine del aeroporto : 144 ft
- Codice IATA : PGF


LFMP - Perpignan

ULTIMO METAR :
  • 191730Z AUTO 29011KT CAVOK 08/02 Q1015 NOSIG

METARs OBSOLETI :
  • 191700Z AUTO 29012KT CAVOK 08/02 Q1015 NOSIG
  • 191630Z AUTO 30007KT CAVOK 09/02 Q1015 NOSIG
  • 191600Z AUTO 32007KT CAVOK 10/01 Q1015 NOSIG
  • 191530Z AUTO 32010KT 290V350 CAVOK 11/02 Q1015 NOSIG
  • 191500Z AUTO 33010KT CAVOK 12/02 Q1015 NOSIG

TAF TAF LFMP
Valido dal 19 a 15 ore il 20 a 15 ore UTC


191400Z 1915/2015 29010KT CAVOK
BECMG 1915/1917 VRB03KT
TEMPO 2004/2009 3000 BR OVC020
ATIS : +33 4 68 63 75 12



MetMap, La meteo Aeronautica in un colpo d'occhio ! - Copyright ORBIFLY Dicembre 2007 - Disclaimer

ORBIFLY MET'MAP TEAM :

Programmazione e sviluppo : Alexandra Zaïnal
Concezione e sviluppo : Baudouin d'Aumeries
Co-Programmazione e sviluppo : Marc-Olivier Méhu
Supporto tecnico e logistico : Manuel Goepfert
Aiuto per la traduzione : Arnaldo La Scala

Contatto : metmap@orbifly.com




FONTI E CREDITI :

   NOAA